Kezdőlap
METAR-TAF:

METAR-TAF

Repülőterek :

Caracas, Venezuela

földrajzi szélesség: 10-36N, földrajzi hosszúság: 066-59W, magasság: 43 m

Jelenlegi meteorológiai megfigyelések

A jelentés 14 perccel ezelõtt készült, 11:00 UTC
Keleti szél 2 kt
Hőmérséklet 25°C
Páratartalom 79%
Légköri nyomás 1010 hPa
Látótávolság 10 km, vagy több
Szórványos felhőzet 1600 lábon

METAR: SVMI 211100Z 09002KT 9999 SCT016 25/21 Q1010

Idő: 07:14 (11:14 UTC)

Előrejelzés

A jelentés 7 órával és 14 perccel ezelõtt készült, 04:00 UTC
Az előrejelzés 21-én 06 óra UTC és 22-én 06 óra UTC között érvényes
Keleti szél 5 kt
Látótávolság 10 km, vagy több
Kevés felhő 1600 lábon
21-én 07 óra UTC és 21-én 12 óra UTC között fokozatosan kialakuló
Kelet-északkeleti szél 5 kt
Szórványos felhőzet 1600 lábon

TAF: SVMI 210400Z 2106/2206 09005KT 9999 FEW016 TX30/18Z TN23/09Z BECMG 2107/2112 07005KT SCT016

Meteorológiai megfigyelések és előrejelzések több, mint 4000 repülőtéren (METAR és TAF jelentéseket).

A térképen piros és sárga pontok jelzik az elérhető meteorológiai állomásokat.

Mozgassa az egeret a pont fölött, hogy megjelenjen az állomás neve.

Azután kattintson az időjárási megfigyelések és előrejelzések megtekintéséhez.

A térkép megváltoztatása: kattintson a fekete keresztel jelölt zöld gombra ráközelítéshez, a vonallal jelölt zöld gombra távolításhoz, vagy a zöld nyilakra a szomszédos térképek eléréséhez.


METAR-TAF: